createdAt,value
2019-01-19T00:01:02.538Z,2.02
2019-01-19T00:04:10.910Z,2.03
2019-01-19T00:13:20.490Z,2.01
2019-01-19T00:19:28.083Z,1.99
2019-01-19T00:22:36.401Z,1.96
2019-01-19T00:25:35.672Z,1.93
2019-01-19T00:28:42.665Z,1.92
2019-01-19T00:40:52.663Z,1.90
2019-01-19T00:43:20.878Z,1.88
2019-01-19T00:52:41.970Z,1.87
2019-01-19T00:55:50.347Z,1.87
2019-01-19T00:58:49.792Z,1.85
2019-01-19T01:05:03.493Z,1.79
2019-01-19T01:14:24.630Z,1.62
2019-01-19T01:20:32.321Z,1.53
2019-01-19T01:26:39.781Z,1.45
2019-01-19T01:29:48.100Z,1.41
2019-01-19T01:32:55.094Z,1.37
2019-01-19T01:36:03.485Z,1.34
2019-01-19T01:39:10.464Z,1.30
2019-01-19T01:42:18.770Z,1.26
2019-01-19T01:45:25.757Z,1.24
2019-01-19T01:48:32.739Z,1.22
2019-01-19T01:51:41.050Z,1.21
2019-01-19T01:54:48.021Z,1.20
2019-01-19T01:57:56.326Z,1.18
2019-01-19T02:01:04.693Z,1.16
2019-01-19T02:04:11.675Z,1.15
2019-01-19T02:07:19.982Z,1.12
2019-01-19T02:19:35.007Z,0.97
2019-01-19T02:22:41.996Z,0.94
2019-01-19T02:25:48.979Z,0.92
2019-01-19T02:28:57.290Z,0.89
2019-01-19T02:32:04.293Z,0.87
2019-01-19T02:38:24.927Z,0.82
2019-01-19T02:47:26.142Z,0.77
2019-01-19T02:50:33.181Z,0.77
2019-01-19T02:53:40.182Z,0.75
2019-01-19T02:56:47.162Z,0.77
2019-01-19T02:59:55.475Z,0.78
2019-01-19T03:03:02.463Z,0.77
2019-01-19T03:09:23.204Z,0.77
2019-01-19T03:12:30.205Z,0.75
2019-01-19T03:15:38.533Z,0.75
2019-01-19T03:18:37.845Z,0.73
2019-01-19T03:21:44.822Z,0.72
2019-01-19T03:24:53.212Z,0.71
2019-01-19T03:31:13.629Z,0.71
2019-01-19T03:34:21.931Z,0.70
2019-01-19T03:37:28.911Z,0.68
2019-01-19T03:40:37.221Z,0.67
2019-01-19T03:46:44.986Z,0.65
2019-01-19T03:49:51.974Z,0.66
2019-01-19T03:56:12.837Z,0.65
2019-01-19T03:59:19.834Z,0.64
2019-01-19T04:08:42.179Z,0.56
2019-01-19T04:11:49.163Z,0.56
2019-01-19T04:20:50.620Z,0.47
2019-01-19T04:23:18.807Z,0.44
2019-01-19T04:26:27.111Z,0.43
2019-01-19T04:31:44.182Z,0.40
2019-01-19T04:34:12.475Z,0.36
2019-01-19T04:36:40.649Z,0.34
2019-01-19T04:41:57.712Z,0.31
2019-01-19T04:44:25.894Z,0.29
2019-01-19T04:46:54.088Z,0.27
2019-01-19T04:49:22.271Z,0.28
2019-01-19T04:51:50.466Z,0.27
2019-01-19T04:54:18.662Z,0.26
2019-01-19T04:56:46.852Z,0.24
2019-01-19T04:59:15.062Z,0.21
2019-01-19T05:01:43.262Z,0.16
2019-01-19T05:04:11.440Z,0.14
2019-01-19T05:06:39.645Z,0.12
2019-01-19T05:09:07.826Z,0.10
2019-01-19T05:11:36.022Z,0.10
2019-01-19T05:14:04.284Z,0.10
2019-01-19T05:16:32.496Z,0.09
2019-01-19T05:19:00.674Z,0.05
2019-01-19T05:21:28.926Z,0.06
2019-01-19T05:23:57.194Z,0.04
2019-01-19T05:26:25.372Z,0.03
2019-01-19T05:28:53.568Z,0.01
2019-01-19T05:31:21.746Z,0.00
2019-01-19T05:33:49.946Z,0.03
2019-01-19T05:36:18.130Z,0.03
2019-01-19T05:38:46.330Z,0.03
2019-01-19T05:41:14.509Z,0.03
2019-01-19T05:43:42.701Z,0.02
2019-01-19T05:46:10.887Z,0.02
2019-01-19T05:48:39.083Z,0.00
2019-01-19T05:51:07.273Z,-0.02
2019-01-19T05:53:35.470Z,-0.04
2019-01-19T05:56:03.666Z,-0.05
2019-01-19T05:58:31.863Z,-0.05
2019-01-19T06:01:00.053Z,-0.05
2019-01-19T06:03:28.262Z,-0.07
2019-01-19T06:08:45.331Z,-0.09
2019-01-19T06:11:13.527Z,-0.08
2019-01-19T06:13:41.718Z,-0.10
2019-01-19T06:16:09.912Z,-0.12
2019-01-19T06:23:48.505Z,-0.18
2019-01-19T06:26:16.695Z,-0.18
2019-01-19T06:28:44.891Z,-0.19
2019-01-19T06:31:13.080Z,-0.18
2019-01-19T06:33:41.283Z,-0.19
2019-01-19T06:36:09.473Z,-0.19
2019-01-19T06:38:37.658Z,-0.19
2019-01-19T06:41:05.860Z,-0.19
2019-01-19T06:43:34.048Z,-0.20
2019-01-19T06:46:02.261Z,-0.20
2019-01-19T06:48:30.452Z,-0.20
2019-01-19T06:50:58.648Z,-0.22
2019-01-19T06:53:26.835Z,-0.22
2019-01-19T06:55:55.044Z,-0.21
2019-01-19T06:58:23.234Z,-0.22
2019-01-19T07:00:51.435Z,-0.22
2019-01-19T07:03:19.612Z,-0.24
2019-01-19T07:05:47.817Z,-0.24
2019-01-19T07:08:16.000Z,-0.23
2019-01-19T07:10:44.206Z,-0.22
2019-01-19T07:13:12.397Z,-0.24
2019-01-19T07:15:40.599Z,-0.24
2019-01-19T07:18:28.220Z,-0.25
2019-01-19T07:20:56.419Z,-0.27
2019-01-19T07:23:24.599Z,-0.25
2019-01-19T07:26:12.226Z,-0.27
2019-01-19T07:28:40.420Z,-0.28
2019-01-19T07:31:08.617Z,-0.26
2019-01-19T07:33:36.803Z,-0.27
2019-01-19T07:36:05.011Z,-0.27
2019-01-19T07:38:33.200Z,-0.28
2019-01-19T07:41:01.409Z,-0.29
2019-01-19T07:48:57.551Z,-0.28
2019-01-19T07:51:25.807Z,-0.28
2019-01-19T07:53:53.950Z,-0.27
2019-01-19T07:56:22.151Z,-0.26
2019-01-19T07:58:50.343Z,-0.26
2019-01-19T08:01:18.549Z,-0.25
2019-01-19T08:03:46.746Z,-0.25
2019-01-19T08:08:49.180Z,-0.25
2019-01-19T08:11:17.407Z,-0.27
2019-01-19T08:13:45.594Z,-0.22
2019-01-19T08:16:13.795Z,-0.19
2019-01-19T08:18:41.992Z,-0.13
2019-01-19T08:21:10.203Z,-0.03
2019-01-19T08:23:38.393Z,0.08
2019-01-19T08:26:06.596Z,0.20
2019-01-19T08:28:34.784Z,0.30
2019-01-19T08:31:02.994Z,0.40
2019-01-19T08:33:31.179Z,0.53
2019-01-19T08:38:38.522Z,0.68
2019-01-19T08:41:06.722Z,0.73
2019-01-19T08:46:23.800Z,0.78
2019-01-19T08:48:51.987Z,0.82
2019-01-19T08:51:20.187Z,0.88
2019-01-19T08:53:48.380Z,0.97
2019-01-19T08:56:16.589Z,1.10
2019-01-19T08:58:44.807Z,1.24
2019-01-19T09:01:12.980Z,1.36
2019-01-19T09:03:41.167Z,1.50
2019-01-19T09:06:09.383Z,1.62
2019-01-19T09:08:37.577Z,1.75
2019-01-19T09:11:05.763Z,1.87
2019-01-19T09:13:33.969Z,1.98
2019-01-19T09:19:10.207Z,2.24
2019-01-19T09:21:38.413Z,2.43
2019-01-19T09:26:55.491Z,2.70
2019-01-19T09:29:23.683Z,2.85
2019-01-19T09:31:51.996Z,2.97
2019-01-19T09:34:20.182Z,3.07
2019-01-19T09:36:48.378Z,3.17
2019-01-19T09:39:35.950Z,3.27
2019-01-19T09:42:04.158Z,3.37
2019-01-19T09:44:32.349Z,3.45
2019-01-19T09:47:00.541Z,3.52
2019-01-19T09:49:28.751Z,3.58
2019-01-19T09:51:56.978Z,3.66
2019-01-19T09:54:25.157Z,3.75
2019-01-19T09:56:53.348Z,3.84
2019-01-19T09:59:21.552Z,3.96
2019-01-19T10:01:49.742Z,4.08
2019-01-19T10:04:17.948Z,4.20
2019-01-19T10:06:46.140Z,4.32
2019-01-19T10:09:14.344Z,4.46
2019-01-19T10:11:42.534Z,4.58
2019-01-19T10:14:10.746Z,4.72
2019-01-19T10:16:38.994Z,4.86
2019-01-19T10:19:07.149Z,4.98
2019-01-19T10:24:24.219Z,5.26
2019-01-19T10:26:52.409Z,5.34
2019-01-19T10:32:00.255Z,5.46
2019-01-19T10:34:28.463Z,5.53
2019-01-19T10:36:56.653Z,5.62
2019-01-19T10:39:24.864Z,5.72
2019-01-19T10:41:53.052Z,5.80
2019-01-19T10:44:21.259Z,5.90
2019-01-19T10:46:49.450Z,5.97
2019-01-19T10:49:17.652Z,6.02
2019-01-19T10:51:45.851Z,6.07
2019-01-19T10:54:14.063Z,6.17
2019-01-19T10:56:42.258Z,6.26
2019-01-19T10:59:10.465Z,6.37
2019-01-19T11:01:38.676Z,6.44
2019-01-19T11:04:06.883Z,6.53
2019-01-19T11:06:35.071Z,6.63
2019-01-19T11:14:37.707Z,6.93
2019-01-19T11:17:05.907Z,8.09
2019-01-19T11:19:34.127Z,10.39
2019-01-19T11:22:02.328Z,11.75
2019-01-19T11:24:30.543Z,12.41
2019-01-19T11:26:58.752Z,13.16
2019-01-19T11:29:26.957Z,13.46
2019-01-19T11:31:55.172Z,13.96
2019-01-19T11:34:23.385Z,14.39
2019-01-19T11:36:51.602Z,14.65
2019-01-19T11:39:19.816Z,14.93
2019-01-19T11:41:48.037Z,15.42
2019-01-19T11:44:16.247Z,15.70
2019-01-19T11:46:44.461Z,15.54
2019-01-19T11:49:12.660Z,15.57
2019-01-19T11:51:40.872Z,15.77
2019-01-19T11:56:57.967Z,16.38
2019-01-19T11:59:26.163Z,16.49
2019-01-19T12:01:54.378Z,16.78
2019-01-19T12:04:22.580Z,17.00
2019-01-19T12:06:57.927Z,17.25
2019-01-19T12:09:26.123Z,17.44
2019-01-19T12:11:54.339Z,17.64
2019-01-19T12:14:22.537Z,17.80
2019-01-19T12:16:50.745Z,17.31
2019-01-19T12:19:18.938Z,17.37
2019-01-19T12:21:47.145Z,17.57
2019-01-19T12:24:15.344Z,17.68
2019-01-19T12:26:43.551Z,17.88
2019-01-19T12:29:11.750Z,18.07
2019-01-19T12:31:39.957Z,18.13
2019-01-19T12:34:08.151Z,17.93
2019-01-19T12:36:36.387Z,18.00
2019-01-19T12:42:18.601Z,17.92
2019-01-19T12:44:46.807Z,17.96
2019-01-19T12:47:15.051Z,18.07
2019-01-19T12:49:43.251Z,18.14
2019-01-19T12:52:11.446Z,18.24
2019-01-19T12:54:39.650Z,18.34
2019-01-19T12:57:07.848Z,18.37
2019-01-19T12:59:36.062Z,18.30
2019-01-19T13:02:04.274Z,18.37
2019-01-19T13:04:32.477Z,18.42
2019-01-19T13:07:00.678Z,18.24
2019-01-19T13:09:28.885Z,17.96
2019-01-19T13:18:37.101Z,17.46
2019-01-19T13:21:44.096Z,17.46
2019-01-19T13:24:52.414Z,17.51
2019-01-19T13:27:59.407Z,17.63
2019-01-19T13:31:07.722Z,17.41
2019-01-19T13:34:14.745Z,17.47
2019-01-19T13:46:37.308Z,16.93
2019-01-19T13:49:45.619Z,17.10
2019-01-19T13:56:06.764Z,17.37
2019-01-19T13:59:15.064Z,17.42
2019-01-19T14:02:22.073Z,17.44
2019-01-19T14:08:30.165Z,17.35
2019-01-19T14:11:37.174Z,17.19
2019-01-19T14:17:57.915Z,16.66
2019-01-19T14:21:06.232Z,16.53
2019-01-19T14:27:27.460Z,16.32
2019-01-19T14:39:36.753Z,15.67
2019-01-19T14:42:45.128Z,15.40
2019-01-19T14:45:52.115Z,15.41
2019-01-19T14:48:59.134Z,14.79
2019-01-19T14:55:19.985Z,11.70
2019-01-19T14:58:26.988Z,10.53
2019-01-19T15:01:33.970Z,9.56
2019-01-19T15:04:40.974Z,8.76
2019-01-19T15:20:05.264Z,6.61
2019-01-19T15:23:12.270Z,6.32
2019-01-19T15:26:19.254Z,6.03
2019-01-19T15:29:27.570Z,5.77
2019-01-19T15:32:34.572Z,5.58
2019-01-19T15:35:41.579Z,5.41
2019-01-19T15:38:40.958Z,5.25
2019-01-19T15:48:03.529Z,4.82
2019-01-19T15:51:11.842Z,4.72
2019-01-19T15:54:18.832Z,4.61
2019-01-19T15:57:25.827Z,4.51
2019-01-19T16:00:32.832Z,4.41
2019-01-19T16:09:54.580Z,4.14
2019-01-19T16:31:07.248Z,3.77
2019-01-19T16:40:28.283Z,3.68
2019-01-19T16:43:35.273Z,3.64
2019-01-19T16:46:44.903Z,3.56
2019-01-19T16:59:08.700Z,3.14
2019-01-19T17:02:17.076Z,3.06
2019-01-19T17:05:24.056Z,2.97
2019-01-19T17:08:31.066Z,2.88
2019-01-19T17:14:39.375Z,2.75
2019-01-19T17:17:47.762Z,2.67
2019-01-19T17:20:54.743Z,2.62
2019-01-19T17:24:03.076Z,2.54
2019-01-19T17:30:23.729Z,2.45
2019-01-19T17:33:32.139Z,2.41
2019-01-19T17:39:53.253Z,2.32
2019-01-19T17:43:00.262Z,2.29
2019-01-19T17:46:07.249Z,2.27
2019-01-19T17:49:15.562Z,2.27
2019-01-19T17:52:22.545Z,2.23
2019-01-19T17:55:30.858Z,2.23
2019-01-19T17:58:37.925Z,2.23
2019-01-19T18:10:48.415Z,2.21
2019-01-19T18:13:55.417Z,2.18
2019-01-19T18:17:02.403Z,2.16
2019-01-19T18:20:10.714Z,2.14
2019-01-19T18:26:31.339Z,2.10
2019-01-19T18:32:39.384Z,2.03
2019-01-19T18:35:46.383Z,1.99
2019-01-19T18:38:53.368Z,1.94
2019-01-19T18:42:01.769Z,1.89
2019-01-19T18:48:22.894Z,1.80
2019-01-19T18:51:29.906Z,1.74
2019-01-19T19:00:50.893Z,1.56
2019-01-19T19:03:57.887Z,1.50
2019-01-19T19:07:04.890Z,1.43
2019-01-19T19:10:11.872Z,1.39
2019-01-19T19:13:18.873Z,1.38
2019-01-19T19:16:26.341Z,1.37
2019-01-19T19:22:46.998Z,1.31
2019-01-19T19:25:53.985Z,1.26
2019-01-19T19:29:00.985Z,1.23
2019-01-19T19:32:07.996Z,1.18
2019-01-19T19:35:14.984Z,1.11
2019-01-19T19:38:21.988Z,1.05
2019-01-19T19:50:45.639Z,0.88
2019-01-19T19:53:13.845Z,0.89
2019-01-19T19:55:41.087Z,0.88
2019-01-19T19:58:09.288Z,0.88
2019-01-19T20:00:37.479Z,0.88
2019-01-19T20:03:05.758Z,0.85
2019-01-19T20:05:33.945Z,0.83
2019-01-19T20:08:02.147Z,0.82
2019-01-19T20:10:30.341Z,0.81
2019-01-19T20:12:58.549Z,0.81
2019-01-19T20:15:26.744Z,0.82
2019-01-19T20:17:54.948Z,0.82
2019-01-19T20:20:23.138Z,0.83
2019-01-19T20:22:51.328Z,0.83
2019-01-19T20:25:19.535Z,0.84
2019-01-19T20:27:47.724Z,0.87
2019-01-19T20:30:56.045Z,0.87
2019-01-19T20:33:24.249Z,0.87
2019-01-19T20:35:52.440Z,0.80
2019-01-19T20:38:20.644Z,0.78
2019-01-19T20:40:48.836Z,0.74
2019-01-19T20:43:17.051Z,0.73
2019-01-19T20:45:45.240Z,0.70
2019-01-19T20:51:02.320Z,0.67
2019-01-19T20:53:30.509Z,0.66
2019-01-19T20:55:58.713Z,0.65
2019-01-19T20:58:26.924Z,0.65
2019-01-19T21:00:55.124Z,0.63
2019-01-19T21:03:23.311Z,0.63
2019-01-19T21:05:51.516Z,0.63
2019-01-19T21:08:19.709Z,0.62
2019-01-19T21:10:47.912Z,0.64
2019-01-19T21:13:16.101Z,0.64
2019-01-19T21:15:44.300Z,0.64
2019-01-19T21:18:12.495Z,0.65
2019-01-19T21:20:40.696Z,0.66
2019-01-19T21:23:08.882Z,0.65
2019-01-19T21:25:37.090Z,0.63
2019-01-19T21:28:05.285Z,0.61
2019-01-19T21:30:33.483Z,0.61
2019-01-19T21:33:01.671Z,0.62
2019-01-19T21:35:29.869Z,0.60
2019-01-19T21:37:58.058Z,0.61
2019-01-19T21:40:26.266Z,0.60
2019-01-19T21:42:54.454Z,0.57
2019-01-19T21:45:22.657Z,0.56
2019-01-19T21:47:50.848Z,0.55
2019-01-19T21:50:19.068Z,0.53
2019-01-19T21:52:47.262Z,0.52
2019-01-19T21:55:15.453Z,0.50
2019-01-19T21:57:43.667Z,0.47
2019-01-19T22:03:13.020Z,0.42
2019-01-19T22:05:41.254Z,0.37
2019-01-19T22:08:09.443Z,0.33
2019-01-19T22:10:37.638Z,0.27
2019-01-19T22:13:05.843Z,0.21
2019-01-19T22:15:34.039Z,0.17
2019-01-19T22:18:02.245Z,0.12
2019-01-19T22:20:30.432Z,0.06
2019-01-19T22:22:58.635Z,0.00
2019-01-19T22:25:26.824Z,-0.04
2019-01-19T22:27:55.035Z,-0.07
2019-01-19T22:31:03.348Z,-0.07
2019-01-19T22:36:10.868Z,-0.07
2019-01-19T22:38:39.072Z,-0.09
2019-01-19T22:41:07.263Z,-0.10
2019-01-19T22:43:35.474Z,-0.10
2019-01-19T22:46:03.663Z,-0.08
2019-01-19T22:48:31.886Z,-0.06
2019-01-19T22:51:00.076Z,-0.05
2019-01-19T22:53:28.286Z,-0.05
2019-01-19T22:55:56.478Z,-0.04
2019-01-19T22:58:24.691Z,-0.05
2019-01-19T23:01:31.674Z,-0.07
2019-01-19T23:03:59.887Z,-0.08
2019-01-19T23:06:28.083Z,-0.09
2019-01-19T23:08:56.284Z,-0.10
2019-01-19T23:11:24.480Z,-0.10
2019-01-19T23:13:52.694Z,-0.13
2019-01-19T23:16:20.893Z,-0.17
2019-01-19T23:18:49.098Z,-0.18
2019-01-19T23:21:17.297Z,-0.20
2019-01-19T23:23:45.498Z,-0.20
2019-01-19T23:29:02.589Z,-0.22
2019-01-19T23:31:30.797Z,-0.20
2019-01-19T23:33:59.006Z,-0.20
2019-01-19T23:36:27.208Z,-0.20
2019-01-19T23:38:55.412Z,-0.23
2019-01-19T23:41:23.606Z,-0.25
2019-01-19T23:43:51.814Z,-0.29
2019-01-19T23:46:20.012Z,-0.34
2019-01-19T23:48:48.218Z,-0.36
2019-01-19T23:51:16.403Z,-0.38
2019-01-19T23:53:44.616Z,-0.41
2019-01-19T23:56:12.808Z,-0.43
2019-01-19T23:58:41.011Z,-0.42
